createdAt,value
2018-02-25T00:01:18.026Z,61.70
2018-02-25T00:03:45.233Z,62.00
2018-02-25T00:06:11.650Z,62.00
2018-02-25T00:08:38.805Z,62.50
2018-02-25T00:11:05.242Z,62.40
2018-02-25T00:13:32.456Z,63.20
2018-02-25T00:15:58.894Z,62.30
2018-02-25T00:18:26.028Z,62.10
2018-02-25T00:20:52.467Z,62.20
2018-02-25T00:23:18.851Z,62.40
2018-02-25T00:25:45.293Z,62.60
2018-02-25T00:28:11.711Z,62.80
2018-02-25T00:30:38.603Z,62.70
2018-02-25T00:33:05.034Z,62.60
2018-02-25T00:35:31.478Z,63.00
2018-02-25T00:37:58.660Z,63.40
2018-02-25T00:40:25.104Z,63.40
2018-02-25T00:42:52.291Z,63.70
2018-02-25T00:45:18.750Z,63.70
2018-02-25T00:47:45.182Z,63.80
2018-02-25T00:50:12.377Z,63.60
2018-02-25T00:52:38.788Z,63.60
2018-02-25T00:55:05.216Z,63.60
2018-02-25T00:57:31.632Z,63.80
2018-02-25T00:59:58.768Z,64.20
2018-02-25T01:02:25.263Z,64.30
2018-02-25T01:04:52.442Z,65.00
2018-02-25T01:07:18.867Z,65.00
2018-02-25T01:09:46.761Z,65.70
2018-02-25T01:12:13.236Z,65.70
2018-02-25T01:14:40.400Z,66.40
2018-02-25T01:17:07.626Z,66.50
2018-02-25T01:19:34.064Z,66.50
2018-02-25T01:22:00.542Z,66.80
2018-02-25T01:24:26.946Z,67.10
2018-02-25T01:26:54.120Z,67.00
2018-02-25T01:29:21.278Z,66.40
2018-02-25T01:31:48.427Z,66.00
2018-02-25T01:34:14.850Z,65.80
2018-02-25T01:36:41.382Z,66.40
2018-02-25T01:39:07.810Z,66.90
2018-02-25T01:41:34.250Z,67.50
2018-02-25T01:44:01.434Z,68.20
2018-02-25T01:46:27.848Z,68.20
2018-02-25T01:48:54.243Z,68.40
2018-02-25T01:51:20.819Z,68.70
2018-02-25T01:53:48.003Z,68.70
2018-02-25T01:56:15.163Z,68.80
2018-02-25T01:58:41.603Z,68.70
2018-02-25T02:01:08.010Z,69.00
2018-02-25T02:03:34.417Z,69.00
2018-02-25T02:06:00.875Z,69.10
2018-02-25T02:08:28.063Z,69.30
2018-02-25T02:10:55.193Z,69.40
2018-02-25T02:13:22.391Z,69.40
2018-02-25T02:15:48.796Z,69.20
2018-02-25T02:18:15.201Z,69.40
2018-02-25T02:20:42.498Z,69.70
2018-02-25T02:23:09.777Z,69.50
2018-02-25T02:25:36.232Z,69.50
2018-02-25T02:28:03.394Z,69.80
2018-02-25T02:30:30.561Z,70.10
2018-02-25T02:32:57.715Z,70.40
2018-02-25T02:35:24.201Z,70.40
2018-02-25T02:37:51.377Z,70.40
2018-02-25T02:40:17.837Z,70.30
2018-02-25T02:42:44.286Z,70.20
2018-02-25T02:45:11.427Z,70.30
2018-02-25T02:47:37.888Z,70.30
2018-02-25T02:50:05.089Z,70.70
2018-02-25T02:52:31.503Z,70.60
2018-02-25T02:54:57.908Z,71.00
2018-02-25T02:57:24.457Z,71.10
2018-02-25T02:59:51.601Z,71.10
2018-02-25T03:02:18.162Z,71.10
2018-02-25T03:04:45.306Z,71.40
2018-02-25T03:07:11.814Z,71.40
2018-02-25T03:09:46.399Z,71.60
2018-02-25T03:12:12.785Z,71.50
2018-02-25T03:14:39.219Z,71.60
2018-02-25T03:17:05.659Z,71.40
2018-02-25T03:19:32.107Z,71.40
2018-02-25T03:21:58.530Z,71.60
2018-02-25T03:24:25.804Z,71.70
2018-02-25T03:26:52.939Z,71.50
2018-02-25T03:29:19.386Z,71.50
2018-02-25T03:31:45.853Z,72.80
2018-02-25T03:34:12.325Z,72.40
2018-02-25T03:36:39.721Z,72.50
2018-02-25T03:39:06.991Z,72.00
2018-02-25T03:41:34.144Z,72.30
2018-02-25T03:44:00.624Z,72.20
2018-02-25T03:46:27.028Z,72.40
2018-02-25T03:48:53.428Z,72.30
2018-02-25T03:51:20.586Z,72.30
2018-02-25T03:53:46.996Z,72.60
2018-02-25T03:56:13.525Z,72.80
2018-02-25T03:58:39.935Z,73.30
2018-02-25T04:01:06.371Z,72.40
2018-02-25T04:03:33.479Z,72.50
2018-02-25T04:05:59.889Z,72.40
2018-02-25T04:08:26.290Z,72.10
2018-02-25T04:10:52.740Z,71.80
2018-02-25T04:13:19.156Z,71.60
2018-02-25T04:15:45.685Z,71.50
2018-02-25T04:18:12.132Z,71.30
2018-02-25T04:20:39.909Z,70.90
2018-02-25T04:23:07.082Z,71.60
2018-02-25T04:25:34.265Z,70.70
2018-02-25T04:28:01.415Z,70.60
2018-02-25T04:30:27.848Z,70.60
2018-02-25T04:32:54.260Z,70.50
2018-02-25T04:35:20.657Z,70.80
2018-02-25T04:37:47.763Z,70.60
2018-02-25T04:40:14.907Z,70.00
2018-02-25T04:42:41.793Z,70.00
2018-02-25T04:45:09.579Z,69.20
2018-02-25T04:47:37.391Z,68.90
2018-02-25T04:50:03.833Z,68.70
2018-02-25T04:52:31.028Z,68.40
2018-02-25T04:54:57.450Z,68.30
2018-02-25T04:57:23.848Z,68.20
2018-02-25T04:59:50.249Z,68.80
2018-02-25T05:02:16.655Z,68.80
2018-02-25T05:04:43.077Z,68.50
2018-02-25T05:07:10.269Z,69.40
2018-02-25T05:09:36.767Z,69.30
2018-02-25T05:12:03.279Z,70.00
2018-02-25T05:14:30.428Z,70.10
2018-02-25T05:16:56.892Z,70.10
2018-02-25T05:19:24.050Z,69.70
2018-02-25T05:21:50.480Z,69.60
2018-02-25T05:24:16.964Z,69.70
2018-02-25T05:26:45.003Z,69.80
2018-02-25T05:29:11.482Z,69.80
2018-02-25T05:31:41.368Z,70.00
2018-02-25T05:34:08.522Z,69.90
2018-02-25T05:36:34.996Z,69.80
2018-02-25T05:39:02.205Z,70.00
2018-02-25T05:41:28.729Z,70.00
2018-02-25T05:43:56.003Z,69.90
2018-02-25T05:46:23.838Z,69.80
2018-02-25T05:48:50.345Z,69.80
2018-02-25T05:51:17.623Z,70.40
2018-02-25T05:53:44.794Z,70.20
2018-02-25T05:56:11.956Z,70.30
2018-02-25T05:58:39.084Z,70.40
2018-02-25T06:01:05.575Z,70.30
2018-02-25T06:03:32.002Z,70.40
2018-02-25T06:05:58.525Z,70.40
2018-02-25T06:08:25.194Z,70.10
2018-02-25T06:10:51.729Z,70.30
2018-02-25T06:13:18.927Z,70.10
2018-02-25T06:15:45.353Z,70.10
2018-02-25T06:18:12.500Z,69.50
2018-02-25T06:20:39.960Z,70.20
2018-02-25T06:23:12.439Z,69.60
2018-02-25T06:25:39.624Z,69.40
2018-02-25T06:28:06.025Z,69.40
2018-02-25T06:30:33.243Z,69.70
2018-02-25T06:33:00.410Z,69.60
2018-02-25T06:35:27.141Z,69.60
2018-02-25T06:37:54.234Z,69.50
2018-02-25T06:40:21.416Z,69.30
2018-02-25T06:42:47.834Z,69.30
2018-02-25T06:45:14.260Z,69.30
2018-02-25T06:47:40.705Z,68.30
2018-02-25T06:50:07.140Z,68.70
2018-02-25T06:52:34.579Z,68.50
2018-02-25T06:55:01.062Z,68.60
2018-02-25T06:57:27.521Z,68.70
2018-02-25T06:59:54.364Z,68.90
2018-02-25T07:02:21.512Z,68.70
2018-02-25T07:04:48.798Z,68.40
2018-02-25T07:07:15.972Z,68.30
2018-02-25T07:09:44.058Z,68.30
2018-02-25T07:12:12.014Z,67.30
2018-02-25T07:14:39.371Z,67.10
2018-02-25T07:17:12.003Z,66.30
2018-02-25T07:19:38.406Z,65.60
2018-02-25T07:22:04.832Z,65.70
2018-02-25T07:24:31.349Z,65.00
2018-02-25T07:26:57.774Z,64.10
2018-02-25T07:29:24.618Z,63.50
2018-02-25T07:31:51.119Z,61.60
2018-02-25T07:34:17.523Z,61.00
2018-02-25T07:36:44.717Z,59.80
2018-02-25T07:39:11.129Z,59.80
2018-02-25T07:41:38.540Z,59.60
2018-02-25T07:44:05.626Z,62.00
2018-02-25T07:46:32.158Z,59.90
2018-02-25T07:48:59.302Z,54.40
2018-02-25T07:51:26.520Z,51.90
2018-02-25T07:53:53.729Z,51.80
2018-02-25T07:56:20.145Z,49.70
2018-02-25T07:58:47.149Z,50.30
2018-02-25T08:01:13.552Z,50.00
2018-02-25T08:03:40.828Z,48.20
2018-02-25T08:06:07.981Z,44.80
2018-02-25T08:08:34.389Z,44.70
2018-02-25T08:11:00.802Z,43.10
2018-02-25T08:13:27.938Z,36.80
2018-02-25T08:15:55.362Z,36.60
2018-02-25T08:18:22.577Z,30.70
2018-02-25T08:20:49.847Z,30.70
2018-02-25T08:23:16.271Z,29.50
2018-02-25T08:25:42.721Z,27.90
2018-02-25T08:28:09.944Z,25.40
2018-02-25T08:30:39.721Z,25.30
2018-02-25T08:33:06.888Z,24.30
2018-02-25T08:35:34.063Z,23.30
2018-02-25T08:38:00.931Z,23.20
2018-02-25T08:40:27.471Z,23.00
2018-02-25T08:42:54.035Z,22.20
2018-02-25T08:45:21.207Z,21.20
2018-02-25T08:47:48.372Z,21.00
2018-02-25T08:50:14.775Z,20.90
2018-02-25T08:52:41.317Z,20.30
2018-02-25T08:55:07.740Z,20.50
2018-02-25T08:57:34.135Z,20.50
2018-02-25T09:00:04.157Z,20.10
2018-02-25T09:02:30.559Z,19.90
2018-02-25T09:04:57.465Z,19.90
2018-02-25T09:07:24.601Z,19.50
2018-02-25T09:09:52.059Z,19.40
2018-02-25T09:12:18.502Z,18.80
2018-02-25T09:14:44.956Z,18.70
2018-02-25T09:17:13.146Z,18.50
2018-02-25T09:19:39.686Z,17.90
2018-02-25T09:22:06.878Z,17.40
2018-02-25T09:24:33.315Z,17.40
2018-02-25T09:27:01.341Z,17.70
2018-02-25T09:29:28.514Z,17.60
2018-02-25T09:31:55.248Z,19.00
2018-02-25T09:34:21.905Z,20.00
2018-02-25T09:36:48.485Z,21.90
2018-02-25T09:39:15.164Z,23.70
2018-02-25T09:41:41.680Z,25.50
2018-02-25T09:44:08.872Z,27.20
2018-02-25T09:46:35.797Z,27.20
2018-02-25T09:49:02.294Z,27.60
2018-02-25T09:51:28.746Z,29.20
2018-02-25T09:53:55.179Z,29.70
2018-02-25T09:56:22.450Z,31.00
2018-02-25T09:58:50.548Z,32.10
2018-02-25T10:01:17.992Z,31.90
2018-02-25T10:03:44.429Z,31.80
2018-02-25T10:06:10.946Z,31.50
2018-02-25T10:08:38.552Z,30.70
2018-02-25T10:11:04.983Z,30.70
2018-02-25T10:13:32.179Z,30.60
2018-02-25T10:15:59.124Z,30.50
2018-02-25T10:18:26.654Z,30.60
2018-02-25T10:20:53.181Z,30.60
2018-02-25T10:23:19.787Z,30.60
2018-02-25T10:25:46.419Z,30.50
2018-02-25T10:28:12.870Z,30.50
2018-02-25T10:30:41.337Z,30.50
2018-02-25T10:33:08.505Z,30.50
2018-02-25T10:35:35.068Z,30.50
2018-02-25T10:38:02.265Z,30.90
2018-02-25T10:40:28.656Z,30.90
2018-02-25T10:42:55.093Z,31.00
2018-02-25T10:45:21.712Z,31.20
2018-02-25T10:47:48.920Z,31.50
2018-02-25T10:50:15.902Z,31.40
2018-02-25T10:52:42.508Z,31.50
2018-02-25T10:55:09.789Z,31.60
2018-02-25T10:57:36.223Z,31.60
2018-02-25T11:00:04.318Z,31.70
2018-02-25T11:02:31.457Z,31.40
2018-02-25T11:04:58.556Z,31.40
2018-02-25T11:07:24.990Z,31.50
2018-02-25T11:09:52.143Z,31.00
2018-02-25T11:12:18.688Z,30.90
2018-02-25T11:14:45.124Z,30.80
2018-02-25T11:17:11.554Z,30.60
2018-02-25T11:19:37.992Z,30.20
2018-02-25T11:22:05.604Z,29.90
2018-02-25T11:24:34.304Z,30.10
2018-02-25T11:27:01.695Z,30.10
2018-02-25T11:29:28.879Z,30.30
2018-02-25T11:31:55.494Z,30.20
2018-02-25T11:34:22.476Z,30.20
2018-02-25T11:36:48.949Z,29.80
2018-02-25T11:39:15.426Z,29.80
2018-02-25T11:41:42.472Z,29.40
2018-02-25T11:44:09.621Z,29.20
2018-02-25T11:46:36.102Z,29.20
2018-02-25T11:49:03.284Z,29.50
2018-02-25T11:51:30.486Z,29.10
2018-02-25T11:53:57.022Z,29.10
2018-02-25T11:56:23.443Z,29.00
2018-02-25T11:58:49.968Z,28.80
2018-02-25T12:01:16.373Z,28.90
2018-02-25T12:03:43.655Z,28.90
2018-02-25T12:06:10.829Z,28.80
2018-02-25T12:08:38.028Z,28.80
2018-02-25T12:11:05.308Z,28.80
2018-02-25T12:13:33.764Z,28.80
2018-02-25T12:16:01.000Z,28.60
2018-02-25T12:18:27.824Z,28.60
2018-02-25T12:20:55.048Z,28.40
2018-02-25T12:23:21.710Z,28.40
2018-02-25T12:25:50.587Z,28.60
2018-02-25T12:28:16.985Z,28.40
2018-02-25T12:30:43.394Z,28.50
2018-02-25T12:33:09.802Z,28.40
2018-02-25T12:35:37.094Z,27.90
2018-02-25T12:38:06.013Z,28.30
2018-02-25T12:40:33.692Z,28.30
2018-02-25T12:43:01.177Z,28.50
2018-02-25T12:45:27.873Z,28.40
2018-02-25T12:47:54.350Z,28.30
2018-02-25T12:50:21.150Z,28.00
2018-02-25T12:52:52.188Z,28.10
2018-02-25T12:55:19.958Z,28.10
2018-02-25T12:57:46.377Z,28.10
2018-02-25T13:00:12.798Z,28.10
2018-02-25T13:02:39.979Z,28.20
2018-02-25T13:05:08.155Z,28.20
2018-02-25T13:07:35.137Z,28.20
2018-02-25T13:10:03.445Z,28.10
2018-02-25T13:12:30.662Z,28.10
2018-02-25T13:14:57.512Z,27.90
2018-02-25T13:17:24.000Z,27.80
2018-02-25T13:19:50.426Z,27.90
2018-02-25T13:22:16.911Z,27.90
2018-02-25T13:24:44.143Z,28.10
2018-02-25T13:27:10.699Z,28.10
2018-02-25T13:29:37.139Z,28.20
2018-02-25T13:32:08.634Z,28.30
2018-02-25T13:34:36.081Z,27.90
2018-02-25T13:37:13.368Z,28.40
2018-02-25T13:39:40.515Z,28.00
2018-02-25T13:48:42.548Z,28.10
2018-02-25T13:51:09.877Z,28.20
2018-02-25T13:53:36.481Z,28.30
2018-02-25T13:56:02.932Z,28.30
2018-02-25T13:58:35.579Z,28.20
2018-02-25T14:01:05.748Z,28.10
2018-02-25T14:03:32.348Z,28.10
2018-02-25T14:06:09.072Z,28.20
2018-02-25T14:08:36.517Z,28.30
2018-02-25T14:11:03.770Z,28.50
2018-02-25T14:13:30.176Z,28.50
2018-02-25T14:15:57.318Z,28.40
2018-02-25T14:18:25.530Z,28.40
2018-02-25T14:20:53.025Z,28.40
2018-02-25T14:23:20.894Z,28.40
2018-02-25T14:25:48.062Z,28.40
2018-02-25T14:28:14.474Z,28.40
2018-02-25T14:30:41.370Z,28.40
2018-02-25T14:33:13.791Z,28.40
2018-02-25T14:35:42.197Z,28.20
2018-02-25T14:38:10.283Z,28.20
2018-02-25T14:40:37.692Z,28.00
2018-02-25T14:43:04.114Z,28.00
2018-02-25T14:45:32.428Z,27.90
2018-02-25T14:48:02.560Z,27.80
2018-02-25T14:50:30.503Z,28.00
2018-02-25T14:52:57.817Z,28.00
2018-02-25T14:55:29.702Z,27.90
2018-02-25T14:57:59.905Z,28.10
2018-02-25T15:00:26.981Z,28.00
2018-02-25T15:02:54.280Z,28.10
2018-02-25T15:05:22.476Z,27.90
2018-02-25T15:07:49.648Z,28.00
2018-02-25T15:10:23.003Z,28.00
2018-02-25T15:12:50.049Z,28.10
2018-02-25T15:15:17.403Z,28.10
2018-02-25T15:17:45.615Z,28.30
2018-02-25T15:20:12.780Z,28.30
2018-02-25T15:22:45.568Z,28.40
2018-02-25T15:25:12.749Z,28.60
2018-02-25T15:27:40.835Z,28.60
2018-02-25T15:30:15.082Z,28.80
2018-02-25T15:32:42.483Z,28.90
2018-02-25T15:35:09.580Z,29.10
2018-02-25T15:37:36.028Z,29.10
2018-02-25T15:40:06.736Z,29.20
2018-02-25T15:42:34.312Z,29.20
2018-02-25T15:45:07.793Z,29.20
2018-02-25T15:47:35.742Z,29.30
2018-02-25T15:50:02.164Z,29.20
2018-02-25T15:52:28.710Z,29.20
2018-02-25T15:54:55.893Z,29.30
2018-02-25T15:57:24.723Z,29.30
2018-02-25T15:59:51.201Z,29.40
2018-02-25T16:02:18.531Z,29.40
2018-02-25T16:04:45.666Z,29.50
2018-02-25T16:07:16.163Z,29.50
2018-02-25T16:09:43.304Z,29.50
2018-02-25T16:12:10.540Z,29.60
2018-02-25T16:14:38.663Z,29.60
2018-02-25T16:17:08.285Z,29.80
2018-02-25T16:19:36.921Z,29.90
2018-02-25T16:22:04.580Z,29.90
2018-02-25T16:24:32.485Z,30.40
2018-02-25T16:26:59.659Z,30.20
2018-02-25T16:29:27.136Z,30.20
2018-02-25T16:32:00.954Z,30.50
2018-02-25T16:34:29.220Z,30.70
2018-02-25T16:37:00.139Z,30.70
2018-02-25T16:39:30.511Z,30.80
2018-02-25T16:42:05.791Z,30.90
2018-02-25T16:44:32.947Z,31.50
2018-02-25T16:46:59.358Z,31.50
2018-02-25T16:49:25.858Z,31.60
2018-02-25T16:51:53.231Z,32.20
2018-02-25T16:54:21.242Z,32.20
2018-02-25T16:56:51.471Z,32.40
2018-02-25T16:59:21.783Z,32.30
2018-02-25T17:01:48.507Z,32.50
2018-02-25T17:04:17.003Z,32.70
2018-02-25T17:06:44.782Z,32.80
2018-02-25T17:09:12.170Z,33.00
2018-02-25T17:11:38.683Z,33.00
2018-02-25T17:14:07.947Z,33.20
2018-02-25T17:16:34.465Z,33.20
2018-02-25T17:19:01.811Z,33.40
2018-02-25T17:21:30.214Z,33.40
2018-02-25T17:23:56.832Z,33.50
2018-02-25T17:26:24.816Z,33.70
2018-02-25T17:29:03.878Z,34.00
2018-02-25T17:31:34.476Z,34.00
2018-02-25T17:34:06.298Z,34.20
2018-02-25T17:36:35.345Z,34.10
2018-02-25T17:39:03.182Z,34.20
2018-02-25T17:41:30.853Z,34.50
2018-02-25T17:43:58.551Z,34.60
2018-02-25T17:46:33.632Z,34.80
2018-02-25T17:49:04.762Z,34.80
2018-02-25T17:51:32.444Z,34.80
2018-02-25T17:54:00.546Z,34.90
2018-02-25T17:56:36.572Z,34.90
2018-02-25T18:04:39.175Z,35.50
2018-02-25T18:07:07.569Z,35.40
2018-02-25T18:09:34.040Z,36.40
2018-02-25T18:12:00.459Z,36.70
2018-02-25T18:14:26.899Z,36.70
2018-02-25T18:16:53.460Z,37.30
2018-02-25T18:19:20.743Z,37.30
2018-02-25T18:21:47.169Z,37.30
2018-02-25T18:24:13.589Z,37.30
2018-02-25T18:26:39.996Z,37.30
2018-02-25T18:29:06.456Z,37.90
2018-02-25T18:31:33.729Z,38.50
2018-02-25T18:34:00.882Z,38.30
2018-02-25T18:36:27.358Z,38.30
2018-02-25T18:38:53.788Z,38.20
2018-02-25T18:41:20.240Z,38.10
2018-02-25T18:43:46.687Z,38.10
2018-02-25T18:46:13.130Z,38.00
2018-02-25T18:48:39.743Z,38.70
2018-02-25T18:51:06.303Z,39.60
2018-02-25T18:53:32.859Z,40.40
2018-02-25T18:56:00.134Z,40.30
2018-02-25T18:58:27.328Z,41.00
2018-02-25T19:00:53.865Z,41.00
2018-02-25T19:03:24.205Z,41.40
2018-02-25T19:05:50.671Z,41.80
2018-02-25T19:08:17.097Z,41.90
2018-02-25T19:10:43.577Z,42.00
2018-02-25T19:13:10.851Z,42.50
2018-02-25T19:15:38.128Z,42.70
2018-02-25T19:18:04.578Z,42.70
2018-02-25T19:20:31.794Z,42.80
2018-02-25T19:22:58.246Z,42.80
2018-02-25T19:25:25.513Z,43.00
2018-02-25T19:27:51.948Z,42.70
2018-02-25T19:30:18.458Z,42.40
2018-02-25T19:32:45.853Z,41.70
2018-02-25T19:35:12.418Z,41.80
2018-02-25T19:37:49.101Z,41.40
2018-02-25T19:40:23.524Z,41.20
2018-02-25T19:42:50.826Z,41.20
2018-02-25T19:45:18.006Z,41.20
2018-02-25T19:47:44.631Z,41.20
2018-02-25T19:50:13.125Z,41.00
2018-02-25T19:52:41.046Z,41.00
2018-02-25T19:55:08.283Z,41.00
2018-02-25T19:57:34.779Z,41.00
2018-02-25T20:00:02.162Z,41.00
2018-02-25T20:02:28.982Z,41.00
2018-02-25T20:04:55.564Z,41.10
2018-02-25T20:07:22.812Z,41.10
2018-02-25T20:09:49.260Z,41.10
2018-02-25T20:12:15.708Z,41.30
2018-02-25T20:14:42.631Z,41.30
2018-02-25T20:17:09.291Z,41.80
2018-02-25T20:19:37.566Z,41.30
2018-02-25T20:22:05.572Z,41.40
2018-02-25T20:24:32.494Z,41.50
2018-02-25T20:26:59.724Z,41.40
2018-02-25T20:29:26.184Z,41.50
2018-02-25T20:31:52.588Z,41.50
2018-02-25T20:34:19.776Z,41.60
2018-02-25T20:36:46.195Z,41.60
2018-02-25T20:39:12.820Z,42.60
2018-02-25T20:41:40.062Z,43.60
2018-02-25T20:44:06.619Z,43.60
2018-02-25T20:46:33.928Z,45.40
2018-02-25T20:49:01.099Z,45.00
2018-02-25T20:51:28.682Z,44.60
2018-02-25T20:53:55.159Z,44.60
2018-02-25T20:56:21.696Z,44.30
2018-02-25T20:58:48.954Z,44.20
2018-02-25T21:01:16.529Z,44.80
2018-02-25T21:03:43.010Z,44.80
2018-02-25T21:06:09.772Z,45.50
2018-02-25T21:08:38.168Z,45.10
2018-02-25T21:11:06.572Z,45.10
2018-02-25T21:13:33.248Z,45.10
2018-02-25T21:15:59.752Z,45.50
2018-02-25T21:18:26.232Z,45.60
2018-02-25T21:20:53.386Z,45.90
2018-02-25T21:23:19.808Z,45.80
2018-02-25T21:25:46.490Z,46.20
2018-02-25T21:28:12.960Z,46.60
2018-02-25T21:30:40.188Z,46.80
2018-02-25T21:33:06.594Z,46.80
2018-02-25T21:35:33.002Z,46.60
2018-02-25T21:37:59.425Z,46.90
2018-02-25T21:40:26.703Z,46.60
2018-02-25T21:42:53.887Z,46.40
2018-02-25T21:45:20.391Z,46.40
2018-02-25T21:47:46.836Z,46.20
2018-02-25T21:50:13.253Z,46.10
2018-02-25T21:52:44.938Z,45.90
2018-02-25T21:55:11.408Z,46.00
2018-02-25T21:57:54.527Z,46.40
2018-02-25T22:00:27.138Z,46.50
2018-02-25T22:02:59.689Z,47.10
2018-02-25T22:05:26.138Z,47.10
2018-02-25T22:07:52.594Z,47.00
2018-02-25T22:10:19.746Z,47.60
2018-02-25T22:12:46.224Z,47.60
2018-02-25T22:15:13.502Z,47.80
2018-02-25T22:17:41.234Z,47.70
2018-02-25T22:20:07.742Z,47.70
2018-02-25T22:22:34.918Z,47.30
2018-02-25T22:25:01.351Z,47.30
2018-02-25T22:27:27.929Z,47.10
2018-02-25T22:29:55.095Z,46.90
2018-02-25T22:32:22.241Z,46.80
2018-02-25T22:34:48.716Z,46.80
2018-02-25T22:37:15.186Z,46.80
2018-02-25T22:39:42.546Z,46.70
2018-02-25T22:42:08.941Z,46.70
2018-02-25T22:44:35.354Z,47.60
2018-02-25T22:47:01.763Z,47.60
2018-02-25T22:49:28.176Z,47.50
2018-02-25T22:51:55.363Z,47.40
2018-02-25T22:54:21.776Z,47.40
2018-02-25T22:56:48.198Z,47.30
2018-02-25T22:59:14.600Z,47.20
2018-02-25T23:01:41.022Z,47.20
2018-02-25T23:04:07.426Z,47.70
2018-02-25T23:06:34.571Z,47.10
2018-02-25T23:09:01.029Z,47.10
2018-02-25T23:11:28.195Z,47.10
2018-02-25T23:13:54.580Z,47.10
2018-02-25T23:16:21.754Z,47.30
2018-02-25T23:18:48.920Z,47.40
2018-02-25T23:21:16.078Z,47.40
2018-02-25T23:23:43.993Z,47.40
2018-02-25T23:26:10.409Z,47.40
2018-02-25T23:28:37.561Z,47.70
2018-02-25T23:31:04.021Z,47.60
2018-02-25T23:33:30.455Z,47.80
2018-02-25T23:35:56.880Z,47.80
2018-02-25T23:38:24.023Z,47.90
2018-02-25T23:40:50.442Z,47.80
2018-02-25T23:43:16.840Z,47.80
2018-02-25T23:45:44.734Z,47.80
2018-02-25T23:48:11.996Z,47.80
2018-02-25T23:50:41.785Z,47.90
2018-02-25T23:53:08.202Z,48.10
2018-02-25T23:55:35.389Z,48.20
2018-02-25T23:58:02.544Z,48.30
